Time;durP1;ratioP1;P1;durP2;ratioP2;P2;SDS_P1;SDS_P2;PMS_P1;PMS_P2;Temp;Humidity;BMP_temperature;BMP_pressure;BME280_temperature;BME280_humidity;BME280_pressure;Samples;Min_cycle;Max_cycle;Signal;HPM_P1;HPM_P2
2021/11/02 00:01:45;;;;;;;121.20;71.03;;;179.60;2252.80;;;;;;5094707;28;20039;-78
2021/11/02 00:04:12;;;;;;;105.80;63.55;;;179.60;2252.80;;;;;;5096227;28;20031;-78
2021/11/02 00:06:38;;;;;;;92.18;60.17;;;179.90;2252.80;;;;;;5096217;28;20020;-79
2021/11/02 00:09:05;;;;;;;87.45;56.42;;;179.70;2252.80;;;;;;5094879;28;20069;-78
2021/11/02 00:11:32;;;;;;;89.68;58.03;;;179.60;2252.80;;;;;;5094827;28;20477;-80
2021/11/02 00:14:01;;;;;;;91.55;57.60;;;179.80;2252.80;;;;;;5096138;28;20052;-78
2021/11/02 00:16:28;;;;;;;103.63;68.55;;;179.80;2252.80;;;;;;5094916;28;20053;-80
2021/11/02 00:19:02;;;;;;;113.38;69.85;;;179.80;2252.80;;;;;;5095967;28;20104;-78
2021/11/02 00:21:31;;;;;;;105.28;65.18;;;179.70;2252.80;;;;;;5095755;28;20070;-79
2021/11/02 00:24:08;;;;;;;87.72;57.95;;;179.70;2252.80;;;;;;5094175;28;20111;-78
2021/11/02 00:26:34;;;;;;;92.43;61.08;;;179.60;2252.80;;;;;;5094347;28;20028;-78
2021/11/02 00:29:00;;;;;;;102.13;61.58;;;179.90;2252.80;;;;;;5094534;28;20501;-76
2021/11/02 00:31:26;;;;;;;98.65;61.03;;;179.90;2252.80;;;;;;5095986;28;20462;-74
2021/11/02 00:33:51;;;;;;;88.28;56.85;;;180.10;2252.80;;;;;;5095441;28;20039;-77
2021/11/02 00:36:17;;;;;;;79.80;54.08;;;180.10;2252.80;;;;;;5095689;28;20022;-79
2021/11/02 00:38:43;;;;;;;89.13;55.33;;;180.10;2252.80;;;;;;5094265;28;20035;-79
2021/11/02 00:41:08;;;;;;;104.68;69.18;;;204.80;2252.80;;;;;;5093840;28;20511;-76
2021/11/02 00:43:35;;;;;;;103.95;63.78;;;204.90;2252.80;;;;;;5095426;28;20028;-78
2021/11/02 00:46:01;;;;;;;96.82;60.90;;;180.10;2252.80;;;;;;5094344;28;20039;-74
2021/11/02 00:48:28;;;;;;;95.45;59.90;;;180.00;2252.80;;;;;;5094934;28;20036;-78
2021/11/02 00:50:54;;;;;;;87.55;54.38;;;179.90;2252.80;;;;;;5094086;28;20052;-78
2021/11/02 00:53:21;;;;;;;109.13;67.75;;;179.80;2252.80;;;;;;5093973;28;20028;-77
2021/11/02 00:55:48;;;;;;;106.70;69.50;;;180.10;2252.80;;;;;;5094914;28;20028;-76
2021/11/02 00:58:14;;;;;;;105.05;66.63;;;180.00;2252.80;;;;;;5093954;28;20024;-76
2021/11/02 01:00:41;;;;;;;94.13;60.42;;;180.00;2252.80;;;;;;5093390;28;20044;-77
2021/11/02 01:03:08;;;;;;;98.30;59.42;;;180.00;2252.80;;;;;;5093638;28;20073;-78
2021/11/02 01:05:35;;;;;;;76.68;47.85;;;204.80;2252.80;;;;;;5095068;28;20023;-77
2021/11/02 01:08:01;;;;;;;71.50;47.28;;;179.90;2252.80;;;;;;5093622;28;20024;-77
2021/11/02 01:10:28;;;;;;;75.80;49.05;;;180.00;2252.80;;;;;;5094666;28;20458;-77
2021/11/02 01:12:54;;;;;;;77.13;48.92;;;179.70;2252.80;;;;;;5093554;28;20023;-77
2021/11/02 01:15:23;;;;;;;77.60;48.50;;;180.00;2252.80;;;;;;5094456;28;20106;-77
2021/11/02 01:17:49;;;;;;;82.88;50.92;;;180.00;2252.80;;;;;;5093216;28;20027;-76
2021/11/02 01:20:16;;;;;;;79.32;48.63;;;179.90;2252.80;;;;;;5093568;28;20100;-80
2021/11/02 01:22:44;;;;;;;95.03;58.58;;;180.00;2252.80;;;;;;5093197;28;20034;-78
2021/11/02 01:25:11;;;;;;;86.15;50.03;;;180.00;2252.80;;;;;;5093316;28;20028;-78
2021/11/02 01:27:37;;;;;;;75.18;49.13;;;179.80;2252.80;;;;;;5093267;28;20032;-79
2021/11/02 01:30:04;;;;;;;83.22;50.38;;;179.90;2252.80;;;;;;5092999;28;20355;-78
2021/11/02 01:32:30;;;;;;;74.30;46.83;;;179.80;2252.80;;;;;;5093143;28;20024;-79
2021/11/02 01:34:56;;;;;;;74.43;48.55;;;180.00;2252.80;;;;;;5092563;28;20031;-76
2021/11/02 01:37:22;;;;;;;78.60;50.92;;;180.00;2252.80;;;;;;5092816;28;20024;-79
2021/11/02 01:39:48;;;;;;;80.03;47.13;;;179.90;2252.80;;;;;;5093360;28;20076;-76
2021/11/02 01:42:14;;;;;;;76.28;45.65;;;180.10;2252.80;;;;;;5092852;28;20020;-78
2021/11/02 01:44:40;;;;;;;73.88;47.35;;;180.00;2252.80;;;;;;5092725;28;20063;-74
2021/11/02 01:47:06;;;;;;;72.40;44.70;;;180.10;2252.80;;;;;;5092936;28;20028;-79
2021/11/02 01:49:34;;;;;;;72.50;46.28;;;179.90;2252.80;;;;;;5092620;28;20478;-79
2021/11/02 01:52:02;;;;;;;78.28;46.63;;;180.10;2252.80;;;;;;5093967;28;20031;-75
2021/11/02 01:54:27;;;;;;;73.15;47.47;;;179.90;2252.80;;;;;;5092564;28;20077;-77
2021/11/02 01:56:53;;;;;;;73.53;46.67;;;204.80;2252.80;;;;;;5092804;28;20028;-78
2021/11/02 01:59:22;;;;;;;79.38;48.47;;;180.00;2252.80;;;;;;5093499;28;20024;-77
2021/11/02 02:01:58;;;;;;;81.32;47.05;;;180.10;2252.80;;;;;;5092630;28;20054;-76
2021/11/02 02:04:53;;;;;;;80.78;49.60;;;204.90;2252.80;;;;;;5092863;28;20364;-75
2021/11/02 02:07:46;;;;;;;78.57;49.85;;;204.90;2252.80;;;;;;5092372;28;20127;-77
2021/11/02 02:10:20;;;;;;;77.93;47.42;;;205.00;2252.80;;;;;;5092665;28;20024;-79
2021/11/02 02:13:07;;;;;;;82.68;48.22;;;205.00;2252.80;;;;;;5092431;28;20020;-77
2021/11/02 02:15:52;;;;;;;99.05;54.45;;;205.20;2252.80;;;;;;5093492;28;20031;-77
2021/11/02 02:18:21;;;;;;;82.07;50.67;;;205.30;2252.80;;;;;;5094143;28;20031;-75
2021/11/02 02:21:21;;;;;;;88.82;55.60;;;205.50;2252.80;;;;;;5092252;28;20052;-77
2021/11/02 02:24:06;;;;;;;89.90;55.25;;;205.60;2252.80;;;;;;5094158;28;20020;-78
2021/11/02 02:26:38;;;;;;;49.42;32.72;;;205.70;2252.80;;;;;;5091886;28;20020;-77
2021/11/02 02:29:06;;;;;;;53.15;34.20;;;230.50;2252.80;;;;;;5092222;28;20020;-76
2021/11/02 02:31:35;;;;;;;53.65;35.22;;;230.60;2252.80;;;;;;5092481;28;20031;-75
2021/11/02 02:34:04;;;;;;;55.83;35.00;;;230.60;2252.80;;;;;;5092169;28;20023;-76
2021/11/02 02:36:34;;;;;;;54.13;36.40;;;230.40;2252.80;;;;;;5093644;28;20020;-75
2021/11/02 02:39:02;;;;;;;50.47;35.13;;;230.40;2252.80;;;;;;5093931;28;20395;-76
2021/11/02 02:41:28;;;;;;;59.50;38.10;;;230.60;2252.80;;;;;;5091969;28;20020;-77
2021/11/02 02:43:55;;;;;;;51.13;33.97;;;230.70;2252.80;;;;;;5092323;28;20024;-77
2021/11/02 02:46:22;;;;;;;54.03;36.30;;;230.80;2252.80;;;;;;5094732;28;20024;-75
2021/11/02 02:48:49;;;;;;;55.17;36.72;;;230.90;2252.80;;;;;;5095913;28;20028;-76
2021/11/02 02:51:17;;;;;;;45.50;31.25;;;231.00;2252.80;;;;;;5097597;28;20020;-77
2021/11/02 02:53:45;;;;;;;42.40;29.48;;;231.20;2252.80;;;;;;5096035;28;20020;-78
2021/11/02 02:56:12;;;;;;;47.30;31.00;;;231.20;2252.80;;;;;;5096220;28;20028;-75
2021/11/02 02:58:42;;;;;;;52.05;33.15;;;231.30;2252.80;;;;;;5096178;28;20120;-76
2021/11/02 03:01:10;;;;;;;48.20;30.65;;;231.30;2252.80;;;;;;5095723;28;20086;-74
2021/11/02 03:03:41;;;;;;;45.53;32.00;;;231.30;2252.80;;;;;;5096152;28;20448;-76
2021/11/02 03:06:11;;;;;;;44.95;33.92;;;256.00;2252.80;;;;;;5096117;28;20107;-76
2021/11/02 03:08:37;;;;;;;49.15;33.15;;;256.10;2252.80;;;;;;5096935;28;20024;-77
2021/11/02 03:11:05;;;;;;;46.65;30.77;;;256.10;2252.80;;;;;;5097220;28;20542;-75
2021/11/02 03:13:33;;;;;;;44.75;30.63;;;256.20;2252.80;;;;;;5096837;28;20479;-76
2021/11/02 03:16:06;;;;;;;37.90;26.52;;;256.20;2252.80;;;;;;5095618;28;20063;-75
2021/11/02 03:19:17;;;;;;;35.08;25.38;;;256.30;2252.80;;;;;;5095786;28;20046;-75
2021/11/02 03:49:34;;;;;;;105.00;46.33;;;256.90;2252.80;;;;;;5096192;28;20035;-75
2021/11/02 03:55:06;;;;;;;50.67;30.48;;;281.60;2278.40;;;;;;5096368;28;20020;-77
2021/11/02 05:57:30;;;;;;;47.78;36.72;;;282.50;2278.40;;;;;;5094151;28;20143;-76
2021/11/02 06:00:02;;;;;;;43.33;33.28;;;282.50;2278.40;;;;;;5092587;28;20020;-74
2021/11/02 06:08:03;;;;;;;48.80;35.90;;;282.50;2278.40;;;;;;5093920;28;20042;-75
2021/11/02 06:30:07;;;;;;;90.95;61.30;;;282.00;2278.40;;;;;;5093409;28;20017;-76
2021/11/02 06:32:36;;;;;;;94.80;66.00;;;281.70;2278.40;;;;;;5092107;28;20247;-76
2021/11/02 06:35:16;;;;;;;86.32;63.63;;;281.70;2278.40;;;;;;5092506;28;20023;-75
2021/11/02 06:48:43;;;;;;;130.35;93.22;;;256.50;2252.80;;;;;;5093569;28;20024;-74
2021/11/02 06:57:29;;;;;;;155.98;103.90;;;256.20;2252.80;;;;;;5093597;28;20027;-76
2021/11/02 07:25:20;;;;;;;89.63;69.75;;;256.60;2252.80;;;;;;5093237;28;20020;-75
2021/11/02 08:48:46;;;;;;;69.70;49.83;;;281.60;2278.40;;;;;;5095439;28;20077;-76
2021/11/02 08:51:12;;;;;;;73.88;57.88;;;281.60;2278.40;;;;;;5095014;28;20035;-74
2021/11/02 08:53:38;;;;;;;63.80;50.72;;;281.70;2278.40;;;;;;5095363;28;20020;-75
2021/11/02 08:56:04;;;;;;;66.35;49.80;;;281.70;2278.40;;;;;;5093957;28;20028;-77
2021/11/02 08:58:30;;;;;;;71.47;53.03;;;281.60;2278.40;;;;;;5093635;28;20179;-75
2021/11/02 09:00:59;;;;;;;72.28;54.38;;;281.70;2278.40;;;;;;5094951;28;20040;-77
2021/11/02 09:03:36;;;;;;;72.40;55.35;;;281.70;2278.40;;;;;;5095419;28;20024;-76
2021/11/02 09:06:07;;;;;;;68.40;53.80;;;281.70;2278.40;;;;;;5093472;28;20408;-76
2021/11/02 09:08:41;;;;;;;63.25;49.15;;;281.70;2278.40;;;;;;5093657;28;20032;-76
2021/11/02 09:11:07;;;;;;;69.57;53.75;;;281.70;2278.40;;;;;;5095043;28;20105;-77
2021/11/02 09:13:37;;;;;;;56.47;46.70;;;281.80;2278.40;;;;;;5093309;28;20111;-78
2021/11/02 09:16:04;;;;;;;68.20;54.05;;;281.80;2278.40;;;;;;5093610;28;20020;-76
2021/11/02 09:18:30;;;;;;;76.43;58.70;;;281.80;2278.40;;;;;;5094789;28;20111;-77
2021/11/02 09:20:58;;;;;;;68.63;54.00;;;281.80;2278.40;;;;;;5093485;28;20020;-75
2021/11/02 09:23:26;;;;;;;79.95;60.53;;;281.80;2278.40;;;;;;5093458;28;20486;-79
2021/11/02 09:25:53;;;;;;;72.82;57.65;;;281.90;2278.40;;;;;;5094384;28;20070;-78
2021/11/02 09:28:20;;;;;;;74.65;55.88;;;282.00;2278.40;;;;;;5093435;28;20097;-78
2021/11/02 09:30:46;;;;;;;60.35;45.63;;;282.00;2278.40;;;;;;5093382;28;20444;-79
2021/11/02 09:33:13;;;;;;;72.55;53.35;;;282.00;2278.40;;;;;;5092950;28;20020;-79
2021/11/02 09:35:39;;;;;;;92.78;66.32;;;282.00;2278.40;;;;;;5094577;28;20024;-79
2021/11/02 09:38:32;;;;;;;85.30;61.60;;;282.00;2278.40;;;;;;5094716;28;20031;-78
2021/11/02 09:41:27;;;;;;;80.80;59.10;;;282.00;2278.40;;;;;;5094325;28;20020;-74
2021/11/02 09:44:13;;;;;;;86.97;64.45;;;282.10;2278.40;;;;;;5093138;28;20047;-79
2021/11/02 09:47:14;;;;;;;71.32;55.92;;;282.20;2278.40;;;;;;5092758;28;20028;-76
2021/11/02 09:49:58;;;;;;;70.70;57.05;;;282.30;2278.40;;;;;;5092942;28;20123;-76
2021/11/02 09:52:55;;;;;;;83.10;65.60;;;282.40;2278.40;;;;;;5094200;28;20024;-77
2021/11/02 09:55:53;;;;;;;131.75;99.28;;;282.50;2278.40;;;;;;5093625;28;20028;-77
2021/11/02 09:58:40;;;;;;;73.10;56.58;;;307.20;2304.00;;;;;;5090904;28;20074;-77
2021/11/02 10:01:14;;;;;;;70.72;55.15;;;307.30;2304.00;;;;;;5092617;28;20047;-76
2021/11/02 10:03:43;;;;;;;67.47;53.88;;;307.30;2304.00;;;;;;5094109;28;20405;-76
2021/11/02 10:06:27;;;;;;;71.47;58.83;;;307.40;2304.00;;;;;;5092804;28;20103;-75
2021/11/02 10:09:03;;;;;;;71.00;55.63;;;307.60;2304.00;;;;;;5093452;28;20030;-75
2021/11/02 10:11:58;;;;;;;60.38;50.22;;;307.70;2304.00;;;;;;5092614;28;20027;-74
2021/11/02 10:14:44;;;;;;;63.53;50.03;;;307.80;2304.00;;;;;;5093550;28;20085;-75
2021/11/02 10:17:26;;;;;;;55.22;43.00;;;307.80;2304.00;;;;;;5093914;28;20051;-77
2021/11/02 10:20:38;;;;;;;58.30;44.38;;;307.80;2304.00;;;;;;5093641;28;20023;-74
2021/11/02 10:23:36;;;;;;;45.70;34.20;;;307.80;2304.00;;;;;;5083600;28;20024;-76
2021/11/02 10:26:33;;;;;;;40.60;32.72;;;307.70;2304.00;;;;;;5094112;28;20024;-74
2021/11/02 10:29:34;;;;;;;50.95;37.95;;;307.80;2304.00;;;;;;5092136;28;20409;-73
2021/11/02 10:32:23;;;;;;;57.80;42.53;;;307.70;2304.00;;;;;;5093992;28;20082;-73
2021/11/02 10:35:27;;;;;;;67.07;42.72;;;307.80;2304.00;;;;;;5092505;28;20020;-75
2021/11/02 10:38:02;;;;;;;45.50;34.58;;;307.80;2304.00;;;;;;5088955;28;20070;-74
2021/11/02 10:40:32;;;;;;;61.05;44.92;;;307.90;2304.00;;;;;;5093716;28;20024;-74
2021/11/02 10:43:04;;;;;;;57.33;40.17;;;307.90;2304.00;;;;;;5091998;28;20054;-76
2021/11/02 10:45:31;;;;;;;60.53;44.17;;;307.90;2304.00;;;;;;5092342;28;20031;-73
2021/11/02 10:48:07;;;;;;;51.42;38.50;;;308.00;2304.00;;;;;;5092268;28;20028;-75
2021/11/02 10:50:38;;;;;;;61.97;43.10;;;308.00;2304.00;;;;;;5091992;28;20031;-73
2021/11/02 10:53:08;;;;;;;67.25;50.38;;;308.10;2304.00;;;;;;5093350;28;20016;-72
2021/11/02 10:55:59;;;;;;;87.32;63.35;;;308.10;2304.00;;;;;;5093505;28;20051;-73
2021/11/02 10:58:56;;;;;;;57.78;42.42;;;332.80;2329.60;;;;;;5091997;28;20437;-75
2021/11/02 11:01:28;;;;;;;43.78;33.88;;;332.90;2329.60;;;;;;5079736;28;20036;-74
2021/11/02 11:03:56;;;;;;;61.38;45.00;;;333.10;2329.60;;;;;;5091933;28;20024;-74
2021/11/02 11:06:24;;;;;;;64.03;44.33;;;332.80;2329.60;;;;;;5093145;28;20101;-73
2021/11/02 11:08:52;;;;;;;41.53;32.35;;;333.30;2329.60;;;;;;5096806;28;20036;-73
2021/11/02 11:11:21;;;;;;;41.80;32.92;;;333.40;2329.60;;;;;;5095645;28;20051;-74
2021/11/02 11:13:51;;;;;;;34.30;29.42;;;333.40;2329.60;;;;;;5095913;28;20020;-74
2021/11/02 11:16:24;;;;;;;34.83;27.38;;;333.40;2329.60;;;;;;5096869;28;20434;-76
2021/11/02 11:19:24;;;;;;;36.95;29.20;;;333.50;2329.60;;;;;;5096891;28;20024;-74
2021/11/02 11:21:51;;;;;;;35.00;27.35;;;333.60;2329.60;;;;;;5095796;28;20363;-75
2021/11/02 11:24:33;;;;;;;33.83;25.88;;;333.60;2329.60;;;;;;5095715;28;20101;-75
2021/11/02 11:27:07;;;;;;;34.03;25.13;;;333.60;2329.60;;;;;;5096992;28;20020;-75
2021/11/02 11:30:01;;;;;;;28.50;24.60;;;333.60;2329.60;;;;;;5095692;28;20020;-74
2021/11/02 11:32:31;;;;;;;28.90;23.38;;;333.70;2329.60;;;;;;5095309;28;20024;-76
2021/11/02 11:34:58;;;;;;;27.92;22.85;;;358.40;2329.60;;;;;;5095555;28;20073;-78
2021/11/02 11:37:28;;;;;;;27.60;23.92;;;358.50;2329.60;;;;;;5095575;28;20028;-78
2021/11/02 11:40:00;;;;;;;28.67;23.55;;;358.60;2329.60;;;;;;5095194;28;20505;-75
2021/11/02 11:42:30;;;;;;;25.90;21.65;;;358.60;2329.60;;;;;;5097089;28;20020;-77
2021/11/02 11:45:03;;;;;;;30.15;25.20;;;358.70;2329.60;;;;;;5095404;28;20043;-76
2021/11/02 11:47:29;;;;;;;29.55;23.88;;;358.70;2329.60;;;;;;5094984;28;20035;-77
2021/11/02 11:49:56;;;;;;;31.10;24.88;;;358.70;2329.60;;;;;;5095262;28;20020;-76
2021/11/02 11:52:25;;;;;;;29.98;22.95;;;358.80;2329.60;;;;;;5095253;28;20054;-76
2021/11/02 11:54:55;;;;;;;35.58;29.48;;;358.80;2329.60;;;;;;5095146;28;20456;-74
2021/11/02 11:57:31;;;;;;;34.53;29.35;;;358.90;2329.60;;;;;;5096405;28;20027;-73
2021/11/02 12:00:00;;;;;;;35.45;26.40;;;359.00;2329.60;;;;;;5094503;28;20024;-73
2021/11/02 12:02:41;;;;;;;35.05;29.23;;;359.00;2329.60;;;;;;5095037;28;20020;-75
2021/11/02 12:05:17;;;;;;;34.22;27.55;;;359.10;2329.60;;;;;;5095027;28;20047;-75
2021/11/02 12:08:12;;;;;;;32.22;24.80;;;359.20;2329.60;;;;;;5094534;28;20374;-75
2021/11/02 12:10:40;;;;;;;26.27;21.75;;;359.20;2329.60;;;;;;5095038;28;20016;-74
2021/11/02 12:13:08;;;;;;;29.60;24.20;;;359.30;2329.60;;;;;;5094684;28;20079;-74
2021/11/02 12:16:10;;;;;;;26.95;21.25;;;384.00;2329.60;;;;;;5094450;28;20367;-74
2021/11/02 12:18:42;;;;;;;36.00;25.50;;;384.10;2329.60;;;;;;5095346;28;20477;-76
2021/11/02 12:21:17;;;;;;;33.67;25.83;;;384.10;2329.60;;;;;;5095705;28;20030;-77
2021/11/02 12:23:45;;;;;;;32.85;25.45;;;384.10;2329.60;;;;;;5096006;28;20024;-75
2021/11/02 12:26:12;;;;;;;28.52;21.48;;;384.20;2329.60;;;;;;5094563;28;20044;-76
2021/11/02 12:28:43;;;;;;;22.90;20.05;;;384.10;2329.60;;;;;;5094212;28;20028;-76
2021/11/02 12:31:13;;;;;;;25.67;20.02;;;384.30;2329.60;;;;;;5094408;28;20043;-76
2021/11/02 12:33:45;;;;;;;26.02;20.80;;;384.40;2329.60;;;;;;5095498;28;20024;-76
2021/11/02 12:36:19;;;;;;;26.52;21.65;;;384.50;2329.60;;;;;;5095399;28;20035;-75
2021/11/02 12:38:45;;;;;;;30.25;23.65;;;384.60;2329.60;;;;;;5094596;28;20468;-75
2021/11/02 12:41:25;;;;;;;27.63;22.25;;;384.70;2329.60;;;;;;5094239;28;20061;-75
2021/11/02 12:44:14;;;;;;;28.15;21.73;;;384.70;2329.60;;;;;;5095410;28;20024;-76
2021/11/02 12:46:44;;;;;;;28.33;22.45;;;409.70;2355.20;;;;;;5094612;28;20456;-75
2021/11/02 12:49:14;;;;;;;29.67;22.95;;;409.70;2355.20;;;;;;5092452;28;20031;-75
2021/11/02 12:51:48;;;;;;;28.42;22.20;;;384.90;2329.60;;;;;;5093795;28;20020;-74
2021/11/02 12:54:18;;;;;;;18.25;16.17;;;384.80;2329.60;;;;;;5093999;28;20069;-74
2021/11/02 12:56:57;;;;;;;20.13;16.55;;;384.70;2329.60;;;;;;5094638;28;20363;-76
2021/11/02 12:59:29;;;;;;;19.20;17.20;;;384.70;2329.60;;;;;;5094378;28;20024;-75
2021/11/02 13:01:59;;;;;;;;;;;409.70;2355.20;;;;;;5077762;28;20467;-75
2021/11/02 13:04:33;;;;;;;17.60;14.75;;;410.10;2355.20;;;;;;5094513;28;20255;-74
2021/11/02 13:07:00;;;;;;;19.13;16.08;;;410.30;2355.20;;;;;;5093732;28;20388;-76
